createdAt,value
2022-09-15T00:01:17.082Z,11.40
2022-09-15T00:03:46.219Z,11.40
2022-09-15T00:06:14.679Z,11.30
2022-09-15T00:08:43.101Z,11.30
2022-09-15T00:11:15.999Z,11.30
2022-09-15T00:13:44.946Z,11.30
2022-09-15T00:16:15.362Z,11.30
2022-09-15T00:18:46.181Z,11.20
2022-09-15T00:21:16.755Z,11.20
2022-09-15T00:23:44.987Z,11.20
2022-09-15T00:26:15.588Z,11.20
2022-09-15T00:28:44.588Z,11.20
2022-09-15T00:31:15.001Z,11.20
2022-09-15T00:33:47.343Z,11.10
2022-09-15T00:36:16.061Z,11.20
2022-09-15T00:38:44.748Z,11.10
2022-09-15T00:41:15.222Z,11.10
2022-09-15T00:43:47.112Z,11.10
2022-09-15T00:46:16.085Z,11.10
2022-09-15T00:48:49.774Z,11.10
2022-09-15T00:51:20.515Z,11.10
2022-09-15T00:53:50.384Z,11.10
2022-09-15T00:56:20.003Z,11.10
2022-09-15T00:58:53.364Z,11.10
2022-09-15T01:01:21.780Z,11.00
2022-09-15T01:03:51.221Z,11.10
2022-09-15T01:06:25.191Z,11.10
2022-09-15T01:08:57.838Z,11.10
2022-09-15T01:11:26.149Z,11.10
2022-09-15T01:13:54.199Z,11.10
2022-09-15T01:16:30.245Z,11.20
2022-09-15T01:19:08.142Z,11.20
2022-09-15T01:21:44.195Z,11.30
2022-09-15T01:24:40.480Z,11.40
2022-09-15T01:27:41.183Z,11.50
2022-09-15T01:30:14.037Z,11.70
2022-09-15T01:33:05.471Z,11.80
2022-09-15T01:35:48.450Z,12.00
2022-09-15T01:38:24.083Z,12.10
2022-09-15T01:40:58.151Z,12.20
2022-09-15T01:43:28.397Z,12.30
2022-09-15T01:45:58.756Z,12.30
2022-09-15T01:48:29.624Z,12.30
2022-09-15T01:51:01.680Z,12.40
2022-09-15T01:53:30.704Z,12.40
2022-09-15T01:56:05.082Z,12.40
2022-09-15T01:58:33.072Z,12.50
2022-09-15T02:01:09.483Z,12.50
2022-09-15T02:03:45.009Z,12.50
2022-09-15T02:06:19.465Z,12.60
2022-09-15T02:08:54.800Z,12.70
2022-09-15T02:11:26.593Z,12.80
2022-09-15T02:14:01.619Z,12.90
2022-09-15T02:16:35.873Z,13.00
2022-09-15T02:19:13.017Z,13.10
2022-09-15T02:21:55.153Z,13.20
2022-09-15T02:24:30.091Z,13.30
2022-09-15T02:26:59.366Z,13.30
2022-09-15T02:29:29.188Z,13.40
2022-09-15T02:32:06.867Z,13.50
2022-09-15T02:34:39.657Z,13.60
2022-09-15T02:37:09.283Z,13.60
2022-09-15T02:39:40.906Z,13.60
2022-09-15T02:42:09.113Z,13.70
2022-09-15T02:44:37.744Z,13.70
2022-09-15T02:47:07.422Z,13.70
2022-09-15T02:49:35.431Z,13.80
2022-09-15T02:52:04.517Z,13.80
2022-09-15T02:54:32.545Z,13.80
2022-09-15T02:57:01.260Z,13.90
2022-09-15T02:59:50.098Z,13.90
2022-09-15T03:02:20.768Z,13.90
2022-09-15T03:04:49.046Z,13.90
2022-09-15T03:07:17.594Z,13.90
2022-09-15T03:09:46.038Z,13.90
2022-09-15T03:12:14.354Z,13.90
2022-09-15T03:14:42.880Z,13.80
2022-09-15T03:17:11.039Z,13.80
2022-09-15T03:19:40.383Z,13.80
2022-09-15T03:22:09.519Z,13.70
2022-09-15T03:24:37.901Z,13.70
2022-09-15T03:27:06.840Z,13.70
2022-09-15T03:29:34.912Z,13.70
2022-09-15T03:32:03.845Z,13.70
2022-09-15T03:34:31.830Z,13.70
2022-09-15T03:37:01.478Z,13.70
2022-09-15T03:39:29.531Z,13.70
2022-09-15T03:41:57.753Z,13.70
2022-09-15T03:44:25.922Z,13.60
2022-09-15T03:46:54.017Z,13.60
2022-09-15T03:49:22.398Z,13.60
2022-09-15T03:51:50.383Z,13.60
2022-09-15T03:54:20.485Z,13.60
2022-09-15T03:56:49.075Z,13.70
2022-09-15T03:59:19.045Z,13.70
2022-09-15T04:01:47.563Z,13.70
2022-09-15T04:04:16.349Z,13.70
2022-09-15T04:06:44.855Z,13.70
2022-09-15T04:09:12.941Z,13.70
2022-09-15T04:11:42.693Z,13.70
2022-09-15T04:14:10.781Z,13.70
2022-09-15T04:16:39.122Z,13.80
2022-09-15T04:19:07.625Z,13.80
2022-09-15T04:21:35.907Z,13.80
2022-09-15T04:24:06.071Z,13.80
2022-09-15T04:26:35.534Z,13.80
2022-09-15T04:29:06.832Z,13.80
2022-09-15T04:31:35.023Z,13.80
2022-09-15T04:34:03.287Z,13.80
2022-09-15T04:36:31.678Z,13.80
2022-09-15T04:39:00.130Z,13.80
2022-09-15T04:41:28.505Z,13.90
2022-09-15T04:43:56.738Z,13.90
2022-09-15T04:46:26.437Z,14.00
2022-09-15T04:48:54.747Z,14.00
2022-09-15T04:51:23.836Z,14.00
2022-09-15T04:53:52.396Z,14.00
2022-09-15T04:56:22.010Z,14.00
2022-09-15T04:58:52.610Z,14.10
2022-09-15T05:01:22.860Z,14.10
2022-09-15T05:03:53.031Z,14.10
2022-09-15T05:06:22.966Z,14.10
2022-09-15T05:08:55.897Z,14.00
2022-09-15T05:11:24.878Z,14.10
2022-09-15T05:13:53.505Z,14.00
2022-09-15T05:16:23.577Z,14.00
2022-09-15T05:18:55.811Z,14.00
2022-09-15T05:21:25.925Z,14.10
2022-09-15T05:23:54.936Z,14.10
2022-09-15T05:26:25.404Z,14.10
2022-09-15T05:28:54.201Z,14.10
2022-09-15T05:31:25.003Z,14.10
2022-09-15T05:33:55.040Z,14.10
2022-09-15T05:36:25.312Z,14.10
2022-09-15T05:38:56.405Z,14.10
2022-09-15T05:41:26.301Z,14.20
2022-09-15T05:43:56.885Z,14.20
2022-09-15T05:46:26.585Z,14.30
2022-09-15T05:48:57.798Z,14.30
2022-09-15T05:51:26.085Z,14.40
2022-09-15T05:53:54.087Z,14.50
2022-09-15T05:56:22.431Z,14.60
2022-09-15T05:58:50.967Z,14.70
2022-09-15T06:01:20.941Z,14.80
2022-09-15T06:03:49.604Z,14.90
2022-09-15T06:06:19.561Z,15.00
2022-09-15T06:08:53.035Z,15.20
2022-09-15T06:11:27.373Z,15.50
2022-09-15T06:13:55.698Z,15.70
2022-09-15T06:16:25.153Z,16.00
2022-09-15T06:18:54.442Z,16.10
2022-09-15T06:21:25.973Z,16.30
2022-09-15T06:23:55.104Z,16.40
2022-09-15T06:26:24.086Z,16.60
2022-09-15T06:28:54.668Z,16.60
2022-09-15T06:31:23.797Z,16.70
2022-09-15T06:33:54.120Z,16.90
2022-09-15T06:36:26.333Z,17.00
2022-09-15T06:38:55.004Z,17.20
2022-09-15T06:41:23.696Z,17.30
2022-09-15T06:43:53.004Z,17.40
2022-09-15T06:46:22.833Z,17.50
2022-09-15T06:48:51.934Z,17.60
2022-09-15T06:51:21.652Z,17.60
2022-09-15T06:53:51.117Z,17.50
2022-09-15T06:56:21.236Z,17.50
2022-09-15T06:58:49.968Z,17.40
2022-09-15T07:01:22.295Z,17.40
2022-09-15T07:03:50.921Z,17.40
2022-09-15T07:06:19.787Z,17.40
2022-09-15T07:08:48.006Z,17.40
2022-09-15T07:11:18.521Z,17.50
2022-09-15T07:13:47.024Z,17.70
2022-09-15T07:16:16.177Z,18.30
2022-09-15T07:18:44.810Z,19.30
2022-09-15T07:21:14.502Z,20.40
2022-09-15T07:23:43.432Z,21.80
2022-09-15T07:26:14.253Z,23.10
2022-09-15T07:28:45.258Z,23.70
2022-09-15T07:31:15.981Z,23.90
2022-09-15T07:33:44.269Z,24.00
2022-09-15T07:36:12.671Z,23.80
2022-09-15T07:38:42.782Z,23.80
2022-09-15T07:41:13.235Z,23.80
2022-09-15T07:43:46.125Z,23.60
2022-09-15T07:46:14.502Z,23.50
2022-09-15T07:48:46.166Z,23.70
2022-09-15T07:51:15.147Z,24.40
2022-09-15T07:53:43.565Z,25.80
2022-09-15T07:56:11.682Z,28.20
2022-09-15T07:58:40.020Z,30.70
2022-09-15T08:01:11.185Z,32.30
2022-09-15T08:03:42.334Z,32.90
2022-09-15T08:06:11.899Z,33.60
2022-09-15T08:08:41.313Z,34.60
2022-09-15T08:11:13.068Z,35.70
2022-09-15T08:13:43.410Z,35.70
2022-09-15T08:16:15.009Z,36.20
2022-09-15T08:18:44.767Z,35.90
2022-09-15T08:21:14.952Z,35.30
2022-09-15T08:23:43.473Z,34.70
2022-09-15T08:26:14.549Z,34.00
2022-09-15T08:28:43.338Z,33.30
2022-09-15T08:31:14.507Z,32.60
2022-09-15T08:33:45.676Z,32.00
2022-09-15T08:36:14.313Z,31.90
2022-09-15T08:38:44.364Z,32.30
2022-09-15T08:41:16.070Z,32.40
2022-09-15T08:43:48.944Z,32.10
2022-09-15T08:46:21.794Z,31.70
2022-09-15T08:48:59.593Z,30.90
2022-09-15T08:51:38.201Z,30.40
2022-09-15T08:54:12.315Z,30.10
2022-09-15T08:56:42.514Z,29.80
2022-09-15T08:59:14.843Z,29.00
2022-09-15T09:02:11.380Z,28.00
2022-09-15T09:05:00.385Z,26.60
2022-09-15T09:07:42.000Z,25.30
2022-09-15T09:10:15.008Z,24.10
2022-09-15T09:12:57.405Z,23.10
2022-09-15T09:15:37.347Z,22.30
2022-09-15T09:18:42.056Z,21.50
2022-09-15T09:21:19.686Z,20.70
2022-09-15T09:23:53.537Z,20.00
2022-09-15T09:26:21.992Z,19.60
2022-09-15T09:28:56.664Z,19.30
2022-09-15T09:31:28.240Z,19.10
2022-09-15T09:34:06.166Z,18.90
2022-09-15T09:36:35.010Z,18.80
2022-09-15T09:39:05.240Z,18.90
2022-09-15T09:41:38.931Z,19.10
2022-09-15T09:44:11.375Z,19.30
2022-09-15T09:46:39.853Z,19.90
2022-09-15T09:49:17.637Z,20.40
2022-09-15T09:51:53.064Z,21.00
2022-09-15T09:54:25.138Z,21.60
2022-09-15T09:56:54.915Z,22.40
2022-09-15T09:59:40.738Z,23.50
2022-09-15T10:02:17.282Z,25.20
2022-09-15T10:04:48.537Z,27.90
2022-09-15T10:07:20.010Z,30.50
2022-09-15T10:09:53.930Z,33.10
2022-09-15T10:12:31.581Z,35.60
2022-09-15T10:15:02.304Z,38.10
2022-09-15T10:17:41.277Z,39.20
2022-09-15T10:20:25.609Z,38.60
2022-09-15T10:23:02.348Z,37.10
2022-09-15T10:25:55.128Z,35.30
2022-09-15T10:28:25.946Z,33.50
2022-09-15T10:31:06.063Z,31.90
2022-09-15T10:33:36.253Z,30.90
2022-09-15T10:36:08.628Z,30.30
2022-09-15T10:38:44.045Z,29.50
2022-09-15T10:41:23.511Z,28.70
2022-09-15T10:44:15.433Z,28.10
2022-09-15T10:46:58.292Z,27.50
2022-09-15T10:49:41.364Z,27.70
2022-09-15T10:52:21.995Z,28.10
2022-09-15T10:55:09.785Z,28.80
2022-09-15T10:57:53.837Z,30.30
2022-09-15T11:00:22.685Z,32.90
2022-09-15T11:03:13.221Z,35.90
2022-09-15T11:05:52.044Z,38.60
2022-09-15T11:08:35.578Z,38.80
2022-09-15T11:11:12.039Z,37.50
2022-09-15T11:13:56.029Z,35.50
2022-09-15T11:16:40.681Z,33.40
2022-09-15T11:19:37.636Z,31.70
2022-09-15T11:22:11.369Z,30.10
2022-09-15T11:24:45.911Z,28.00
2022-09-15T11:27:19.351Z,26.50
2022-09-15T11:30:03.626Z,25.00
2022-09-15T11:32:33.937Z,23.80
2022-09-15T11:35:29.823Z,22.80
2022-09-15T11:38:02.816Z,22.00
2022-09-15T11:40:38.689Z,21.20
2022-09-15T11:43:17.576Z,20.70
2022-09-15T11:45:50.352Z,20.10
2022-09-15T11:48:23.767Z,19.80
2022-09-15T11:50:55.753Z,19.60
2022-09-15T11:53:32.002Z,19.60
2022-09-15T11:56:10.746Z,20.00
2022-09-15T11:59:04.731Z,21.50
2022-09-15T12:01:42.631Z,24.50
2022-09-15T12:04:16.959Z,28.00
2022-09-15T12:06:49.381Z,31.20
2022-09-15T12:09:19.175Z,33.90
2022-09-15T12:11:50.927Z,35.90
2022-09-15T12:14:35.405Z,37.60
2022-09-15T12:17:06.580Z,39.20
2022-09-15T12:19:48.663Z,40.10
2022-09-15T12:22:23.755Z,41.30
2022-09-15T12:25:00.926Z,41.80
2022-09-15T12:27:31.054Z,41.90
2022-09-15T12:30:00.712Z,41.90
2022-09-15T12:32:29.428Z,40.40
2022-09-15T12:35:04.068Z,38.30
2022-09-15T12:37:38.018Z,35.80
2022-09-15T12:40:08.214Z,33.50
2022-09-15T12:42:38.462Z,31.50
2022-09-15T12:45:20.921Z,30.60
2022-09-15T12:47:53.060Z,31.40
2022-09-15T12:50:28.870Z,33.10
2022-09-15T12:52:59.337Z,34.70
2022-09-15T12:55:28.779Z,35.00
2022-09-15T12:58:01.454Z,34.20
2022-09-15T13:00:45.588Z,33.80
2022-09-15T13:03:50.898Z,33.10
2022-09-15T13:06:21.640Z,32.20
2022-09-15T13:08:55.483Z,31.20
2022-09-15T13:11:34.390Z,30.00
2022-09-15T13:14:14.986Z,28.80
2022-09-15T13:16:53.784Z,27.50
2022-09-15T13:19:25.503Z,26.50
2022-09-15T13:21:59.529Z,25.60
2022-09-15T13:24:45.904Z,25.00
2022-09-15T13:27:15.956Z,24.60
2022-09-15T13:29:50.925Z,24.20
2022-09-15T13:32:29.543Z,23.80
2022-09-15T13:35:27.696Z,23.40
2022-09-15T13:38:24.966Z,22.90
2022-09-15T13:41:32.877Z,22.50
2022-09-15T13:44:21.654Z,22.10
2022-09-15T13:47:00.114Z,21.90
2022-09-15T13:49:49.020Z,21.70
2022-09-15T13:52:32.501Z,21.60
2022-09-15T13:55:17.007Z,21.80
2022-09-15T14:00:48.030Z,22.10
2022-09-15T14:03:25.651Z,21.90
2022-09-15T14:05:54.731Z,21.80
2022-09-15T14:08:26.128Z,21.40
2022-09-15T14:10:57.588Z,20.90
2022-09-15T14:13:27.937Z,20.30
2022-09-15T14:16:01.331Z,19.60
2022-09-15T14:18:31.876Z,19.00
2022-09-15T14:21:02.238Z,18.40
2022-09-15T14:23:30.989Z,18.00
2022-09-15T14:26:01.168Z,17.60
2022-09-15T14:28:32.274Z,17.40
2022-09-15T14:31:01.967Z,17.20
2022-09-15T14:33:38.036Z,17.00
2022-09-15T14:36:22.405Z,16.90
2022-09-15T14:39:08.987Z,16.80
2022-09-15T14:41:37.623Z,16.60
2022-09-15T14:47:14.501Z,16.20
2022-09-15T14:49:43.865Z,16.10
2022-09-15T14:52:27.718Z,16.10
2022-09-15T14:55:01.612Z,16.20
2022-09-15T14:57:33.144Z,16.40
2022-09-15T15:00:08.002Z,16.50
2022-09-15T15:02:51.855Z,16.70
2022-09-15T15:05:27.525Z,17.00
2022-09-15T15:07:56.759Z,17.10
2022-09-15T15:10:26.927Z,17.10
2022-09-15T15:12:57.317Z,17.10
2022-09-15T15:15:25.941Z,17.00
2022-09-15T15:17:55.494Z,17.00
2022-09-15T15:20:27.006Z,16.90
2022-09-15T15:23:13.042Z,17.00
2022-09-15T15:25:41.769Z,17.10
2022-09-15T15:28:31.071Z,17.00
2022-09-15T15:31:15.468Z,17.00
2022-09-15T15:33:48.211Z,16.80
2022-09-15T15:36:22.668Z,16.50
2022-09-15T15:38:53.925Z,16.30
2022-09-15T15:41:23.981Z,16.10
2022-09-15T15:44:00.264Z,16.00
2022-09-15T15:46:48.159Z,15.80
2022-09-15T15:49:16.516Z,15.60
2022-09-15T15:51:45.989Z,15.50
2022-09-15T15:54:14.254Z,15.40
2022-09-15T15:56:42.794Z,15.40
2022-09-15T15:59:13.686Z,15.30
2022-09-15T16:01:42.485Z,15.30
2022-09-15T16:04:13.216Z,15.30
2022-09-15T16:06:42.049Z,15.40
2022-09-15T16:09:12.731Z,15.40
2022-09-15T16:11:42.354Z,15.40
2022-09-15T16:14:12.499Z,15.40
2022-09-15T16:16:40.987Z,15.40
2022-09-15T16:19:09.531Z,15.30
2022-09-15T16:21:40.940Z,15.30
2022-09-15T16:24:14.747Z,15.10
2022-09-15T16:26:43.628Z,15.00
2022-09-15T16:29:11.905Z,14.80
2022-09-15T16:31:41.026Z,14.70
2022-09-15T16:34:18.625Z,14.50
2022-09-15T16:36:47.570Z,14.40
2022-09-15T16:39:16.939Z,14.30
2022-09-15T16:41:45.167Z,14.20
2022-09-15T16:44:19.095Z,14.20
2022-09-15T16:46:47.451Z,14.10
2022-09-15T16:49:15.524Z,14.10
2022-09-15T16:51:43.815Z,14.00
2022-09-15T16:54:17.763Z,14.00
2022-09-15T16:56:46.277Z,14.00
2022-09-15T16:59:14.391Z,14.00
2022-09-15T17:01:42.650Z,14.00
2022-09-15T17:04:15.677Z,14.00
2022-09-15T17:06:44.060Z,13.90
2022-09-15T17:09:12.180Z,13.90
2022-09-15T17:11:41.821Z,13.80
2022-09-15T17:14:13.175Z,13.70
2022-09-15T17:16:41.246Z,13.70
2022-09-15T17:19:09.268Z,13.60
2022-09-15T17:21:37.942Z,13.60
2022-09-15T17:24:06.242Z,13.50
2022-09-15T17:26:34.321Z,13.50
2022-09-15T17:29:03.712Z,13.40
2022-09-15T17:31:32.359Z,13.40
2022-09-15T17:34:00.884Z,13.40
2022-09-15T17:36:28.951Z,13.40
2022-09-15T17:38:56.985Z,13.50
2022-09-15T17:41:24.988Z,13.40
2022-09-15T17:43:53.156Z,13.40
2022-09-15T17:46:22.905Z,13.40
2022-09-15T17:48:50.985Z,13.30
2022-09-15T17:51:19.151Z,13.30
2022-09-15T17:53:47.826Z,13.30
2022-09-15T17:56:16.276Z,13.20
2022-09-15T17:58:44.353Z,13.10
2022-09-15T18:01:14.846Z,13.00
2022-09-15T18:03:45.790Z,12.90
2022-09-15T18:06:13.811Z,12.80
2022-09-15T18:08:41.874Z,12.70
2022-09-15T18:11:12.105Z,12.60
2022-09-15T18:13:40.137Z,12.40
2022-09-15T18:16:12.242Z,12.40
2022-09-15T18:18:41.027Z,12.30
2022-09-15T18:21:18.445Z,12.20
2022-09-15T18:23:46.489Z,12.20
2022-09-15T18:26:14.482Z,12.10
2022-09-15T18:28:42.691Z,12.10
2022-09-15T18:31:13.656Z,12.00
2022-09-15T18:33:42.076Z,12.00
2022-09-15T18:36:11.501Z,12.00
2022-09-15T18:38:39.518Z,11.90
2022-09-15T18:41:11.724Z,11.90
2022-09-15T18:43:39.744Z,11.90
2022-09-15T18:46:08.089Z,11.90
2022-09-15T18:48:36.218Z,11.90
2022-09-15T18:51:08.787Z,11.90
2022-09-15T18:53:38.481Z,11.90
2022-09-15T18:56:10.815Z,11.90
2022-09-15T18:58:38.868Z,11.80
2022-09-15T19:01:07.900Z,11.80
2022-09-15T19:03:36.894Z,11.70
2022-09-15T19:06:05.312Z,11.70
2022-09-15T19:08:35.416Z,11.70
2022-09-15T19:11:05.580Z,11.70
2022-09-15T19:13:35.571Z,11.60
2022-09-15T19:16:05.446Z,11.60
2022-09-15T19:18:33.760Z,11.60
2022-09-15T19:21:07.000Z,11.60
2022-09-15T19:23:36.073Z,11.50
2022-09-15T19:26:07.193Z,11.50
2022-09-15T19:28:35.468Z,11.50
2022-09-15T19:31:03.904Z,11.50
2022-09-15T19:33:32.161Z,11.50
2022-09-15T19:36:24.178Z,11.50
2022-09-15T19:38:52.011Z,11.40
2022-09-15T19:41:21.526Z,11.40
2022-09-15T19:43:49.561Z,11.40
2022-09-15T19:46:21.345Z,11.40
2022-09-15T19:48:50.187Z,11.40
2022-09-15T19:51:19.712Z,11.40
2022-09-15T19:53:48.458Z,11.40
2022-09-15T19:56:17.767Z,11.40
2022-09-15T19:58:47.447Z,11.40
2022-09-15T20:01:16.305Z,11.40
2022-09-15T20:03:44.378Z,11.40
2022-09-15T20:06:12.617Z,11.40
2022-09-15T20:08:41.585Z,11.50
2022-09-15T20:11:10.958Z,11.50
2022-09-15T20:13:41.562Z,11.50
2022-09-15T20:16:15.142Z,11.50
2022-09-15T20:18:43.461Z,11.60
2022-09-15T20:21:21.768Z,11.60
2022-09-15T20:23:56.257Z,11.60
2022-09-15T20:26:24.871Z,11.60
2022-09-15T20:28:53.820Z,11.60
2022-09-15T20:31:25.347Z,11.50
2022-09-15T20:33:54.761Z,11.50
2022-09-15T20:36:25.259Z,11.50
2022-09-15T20:38:54.508Z,11.40
2022-09-15T20:41:25.067Z,11.40
2022-09-15T20:43:53.703Z,11.40
2022-09-15T20:46:24.665Z,11.30
2022-09-15T20:48:53.360Z,11.30
2022-09-15T20:51:23.857Z,11.30
2022-09-15T20:53:54.453Z,11.30
2022-09-15T20:56:25.576Z,11.30
2022-09-15T20:58:54.399Z,11.30
2022-09-15T21:01:26.181Z,11.20
2022-09-15T21:03:55.302Z,11.30
2022-09-15T21:06:25.502Z,11.20
2022-09-15T21:08:55.549Z,11.20
2022-09-15T21:11:24.810Z,11.20
2022-09-15T21:13:53.109Z,11.20
2022-09-15T21:16:23.943Z,11.20
2022-09-15T21:18:53.040Z,11.20
2022-09-15T21:21:22.896Z,11.10
2022-09-15T21:23:53.591Z,11.10
2022-09-15T21:26:23.891Z,11.10
2022-09-15T21:28:52.824Z,11.00
2022-09-15T21:31:24.036Z,11.10
2022-09-15T21:33:54.130Z,11.10
2022-09-15T21:36:23.858Z,11.10
2022-09-15T21:38:54.111Z,11.20
2022-09-15T21:41:25.580Z,11.30
2022-09-15T21:43:55.362Z,11.30
2022-09-15T21:46:27.161Z,11.40
2022-09-15T21:48:57.464Z,11.40
2022-09-15T21:51:28.410Z,11.40
2022-09-15T21:53:58.361Z,11.30
2022-09-15T21:56:27.944Z,11.30
2022-09-15T21:58:56.163Z,11.20
2022-09-15T22:01:27.637Z,11.20
2022-09-15T22:03:57.339Z,11.10
2022-09-15T22:06:30.274Z,11.10
2022-09-15T22:08:58.820Z,11.00
2022-09-15T22:11:27.012Z,10.90
2022-09-15T22:13:55.711Z,10.90
2022-09-15T22:16:26.759Z,10.90
2022-09-15T22:18:55.510Z,10.90
2022-09-15T22:21:26.472Z,10.80
2022-09-15T22:23:56.648Z,10.80
2022-09-15T22:26:26.495Z,10.80
2022-09-15T22:28:55.341Z,10.70
2022-09-15T22:31:26.120Z,10.60
2022-09-15T22:33:54.690Z,10.60
2022-09-15T22:36:28.818Z,10.60
2022-09-15T22:39:03.642Z,10.60
2022-09-15T22:41:32.761Z,10.60
2022-09-15T22:44:00.986Z,10.50
2022-09-15T22:46:30.362Z,10.50
2022-09-15T22:48:58.461Z,10.50
2022-09-15T22:51:26.775Z,10.50
2022-09-15T22:53:56.597Z,10.40
2022-09-15T22:56:26.153Z,10.50
2022-09-15T22:58:54.512Z,10.50
2022-09-15T23:01:24.452Z,10.40
2022-09-15T23:03:55.697Z,10.40
2022-09-15T23:06:24.850Z,10.40
2022-09-15T23:08:53.661Z,10.50
2022-09-15T23:11:22.261Z,10.50
2022-09-15T23:13:50.305Z,10.50
2022-09-15T23:16:18.785Z,10.50
2022-09-15T23:18:47.404Z,10.50
2022-09-15T23:21:17.126Z,10.50
2022-09-15T23:23:48.810Z,10.40
2022-09-15T23:26:18.955Z,10.40
2022-09-15T23:28:47.045Z,10.40
2022-09-15T23:31:15.159Z,10.40
2022-09-15T23:33:44.011Z,10.40
2022-09-15T23:36:14.725Z,10.40
2022-09-15T23:38:45.861Z,10.40
2022-09-15T23:41:15.346Z,10.40
2022-09-15T23:43:43.644Z,10.40
2022-09-15T23:46:12.067Z,10.30
2022-09-15T23:48:40.067Z,10.30
2022-09-15T23:51:08.845Z,10.30
2022-09-15T23:53:37.179Z,10.20
2022-09-15T23:56:07.538Z,10.20
2022-09-15T23:58:35.617Z,10.20
